createdAt,value
2023-05-21T00:01:45.573Z,98515.97
2023-05-21T00:06:04.107Z,98503.72
2023-05-21T00:10:22.089Z,98502.03
2023-05-21T00:14:42.124Z,98507.06
2023-05-21T00:19:00.040Z,98498.88
2023-05-21T00:23:18.906Z,98497.63
2023-05-21T00:27:38.004Z,98499.66
2023-05-21T00:31:58.600Z,98495.47
2023-05-21T00:36:17.138Z,98497.19
2023-05-21T00:40:37.703Z,98488.00
2023-05-21T00:44:55.798Z,98491.59
2023-05-21T00:49:15.160Z,98487.75
2023-05-21T00:53:36.103Z,98493.22
2023-05-21T00:57:54.976Z,98485.75
2023-05-21T01:02:14.452Z,98484.44
2023-05-21T01:06:35.526Z,98489.56
2023-05-21T01:10:55.661Z,98473.91
2023-05-21T01:15:15.082Z,98479.38
2023-05-21T01:19:37.512Z,98470.63
2023-05-21T01:23:55.901Z,98469.25
2023-05-21T01:28:15.420Z,98468.25
2023-05-21T01:32:56.884Z,98467.56
2023-05-21T01:37:33.599Z,98464.59
2023-05-21T01:41:55.449Z,98471.97
2023-05-21T01:46:17.928Z,98473.91
2023-05-21T01:50:41.419Z,98463.81
2023-05-21T01:55:00.410Z,98463.72
2023-05-21T01:59:20.053Z,98459.94
2023-05-21T02:03:38.716Z,98459.50
2023-05-21T02:07:57.344Z,98452.69
2023-05-21T02:12:15.031Z,98451.78
2023-05-21T02:16:33.668Z,98451.31
2023-05-21T02:20:51.341Z,98452.34
2023-05-21T02:25:11.446Z,98445.19
2023-05-21T02:29:30.472Z,98445.09
2023-05-21T02:33:49.139Z,98435.44
2023-05-21T02:38:09.361Z,98432.06
2023-05-21T02:42:27.463Z,98425.44
2023-05-21T02:46:45.488Z,98424.06
2023-05-21T02:51:05.359Z,98408.56
2023-05-21T02:55:23.698Z,98407.19
2023-05-21T02:59:41.198Z,98413.63
2023-05-21T03:03:59.759Z,98421.97
2023-05-21T03:08:17.929Z,98416.59
2023-05-21T03:12:35.451Z,98421.97
2023-05-21T03:16:53.540Z,98421.38
2023-05-21T03:21:13.844Z,98415.56
2023-05-21T03:25:33.360Z,98416.44
2023-05-21T03:29:52.098Z,98410.72
2023-05-21T03:34:09.948Z,98414.25
2023-05-21T03:38:27.532Z,98410.28
2023-05-21T03:42:45.573Z,98419.69
2023-05-21T03:47:03.115Z,98418.09
2023-05-21T03:51:22.305Z,98419.81
2023-05-21T03:55:41.478Z,98423.00
2023-05-21T04:00:02.874Z,98421.06
2023-05-21T04:04:21.523Z,98424.56
2023-05-21T04:08:40.374Z,98424.81
2023-05-21T04:12:58.470Z,98418.44
2023-05-21T04:17:15.989Z,98420.50
2023-05-21T04:21:35.124Z,98424.25
2023-05-21T04:25:53.692Z,98420.72
2023-05-21T04:30:12.097Z,98421.19
2023-05-21T04:34:31.021Z,98434.22
2023-05-21T04:38:49.181Z,98422.91
2023-05-21T04:43:06.639Z,98431.97
2023-05-21T04:47:25.606Z,98430.28
2023-05-21T04:51:43.831Z,98433.56
2023-05-21T04:56:01.736Z,98437.63
2023-05-21T05:00:19.914Z,98432.41
2023-05-21T05:04:39.413Z,98436.47
2023-05-21T05:08:57.778Z,98429.47
2023-05-21T05:13:15.349Z,98435.84
2023-05-21T05:17:36.231Z,98438.13
2023-05-21T05:21:55.658Z,98424.03
2023-05-21T05:26:13.214Z,98432.09
2023-05-21T05:30:32.225Z,98432.56
2023-05-21T05:34:50.056Z,98432.91
2023-05-21T05:39:08.184Z,98426.53
2023-05-21T05:43:26.603Z,98423.94
2023-05-21T05:47:45.618Z,98423.09
2023-05-21T05:52:05.707Z,98426.31
2023-05-21T05:56:23.775Z,98436.03
2023-05-21T06:00:41.665Z,98437.78
2023-05-21T06:04:59.457Z,98433.91
2023-05-21T06:09:17.037Z,98435.19
2023-05-21T06:13:35.032Z,98436.31
2023-05-21T06:17:52.639Z,98435.72
2023-05-21T06:22:10.723Z,98429.28
2023-05-21T06:26:30.068Z,98422.34
2023-05-21T06:30:49.487Z,98420.19
2023-05-21T06:35:07.437Z,98414.66
2023-05-21T06:39:25.656Z,98421.31
2023-05-21T06:43:43.226Z,98414.50
2023-05-21T06:48:01.991Z,98419.28
2023-05-21T06:52:20.084Z,98418.50
2023-05-21T06:56:37.702Z,98418.63
2023-05-21T07:00:55.302Z,98409.28
2023-05-21T07:05:13.367Z,98398.31
2023-05-21T07:09:31.292Z,98396.69
2023-05-21T07:13:49.168Z,98404.88
2023-05-21T07:18:08.270Z,98405.56
2023-05-21T07:22:27.954Z,98400.78
2023-05-21T07:26:48.066Z,98399.44
2023-05-21T07:31:06.068Z,98397.53
2023-05-21T07:35:24.322Z,98395.56
2023-05-21T07:39:42.370Z,98397.28
2023-05-21T07:44:01.880Z,98402.84
2023-05-21T07:48:23.685Z,98401.03
2023-05-21T07:52:41.321Z,98390.16
2023-05-21T07:56:59.951Z,98396.59
2023-05-21T08:01:17.540Z,98395.91
2023-05-21T08:05:35.753Z,98393.88
2023-05-21T08:09:54.870Z,98391.50
2023-05-21T08:14:12.466Z,98393.53
2023-05-21T08:18:30.687Z,98380.03
2023-05-21T08:22:48.553Z,98390.69
2023-05-21T08:27:06.252Z,98382.06
2023-05-21T08:31:24.043Z,98386.50
2023-05-21T08:35:41.802Z,98385.59
2023-05-21T08:39:59.909Z,98393.09
2023-05-21T08:44:22.913Z,98389.00
2023-05-21T08:48:40.922Z,98379.91
2023-05-21T08:53:00.568Z,98382.31
2023-05-21T08:57:21.329Z,98383.31
2023-05-21T09:01:42.863Z,98380.69
2023-05-21T09:06:00.891Z,98386.25
2023-05-21T09:10:22.628Z,98386.50
2023-05-21T09:14:42.652Z,98392.66
2023-05-21T09:19:03.010Z,98382.06
2023-05-21T09:23:22.807Z,98390.16
2023-05-21T09:27:41.545Z,98389.59
2023-05-21T09:32:05.990Z,98399.00
2023-05-21T09:36:25.778Z,98374.13
2023-05-21T09:40:48.850Z,98387.16
2023-05-21T09:45:11.349Z,98392.72
2023-05-21T09:49:29.880Z,98389.88
2023-05-21T09:53:55.920Z,98382.94
2023-05-21T09:58:14.672Z,98375.38
2023-05-21T10:02:34.143Z,98373.81
2023-05-21T10:06:53.033Z,98380.16
2023-05-21T10:11:13.037Z,98380.59
2023-05-21T10:15:38.884Z,98369.34
2023-05-21T10:19:58.182Z,98372.38
2023-05-21T10:24:17.085Z,98370.88
2023-05-21T10:28:39.239Z,98367.81
2023-05-21T10:32:58.220Z,98374.38
2023-05-21T10:37:17.391Z,98364.66
2023-05-21T10:41:53.754Z,98365.00
2023-05-21T10:46:54.866Z,98370.25
2023-05-21T10:51:26.845Z,98370.56
2023-05-21T10:56:29.635Z,98376.78
2023-05-21T11:00:47.849Z,98370.50
2023-05-21T11:05:08.203Z,98366.81
2023-05-21T11:09:27.848Z,98361.06
2023-05-21T11:13:50.685Z,98345.66
2023-05-21T11:18:10.375Z,98344.72
2023-05-21T11:22:28.441Z,98343.03
2023-05-21T11:26:49.066Z,98339.81
2023-05-21T11:31:27.820Z,98338.25
2023-05-21T11:35:46.496Z,98334.47
2023-05-21T11:40:26.439Z,98348.41
2023-05-21T11:44:48.734Z,98338.00
2023-05-21T11:49:06.938Z,98333.44
2023-05-21T11:53:30.656Z,98332.47
2023-05-21T11:57:54.262Z,98345.91
2023-05-21T12:02:17.146Z,98391.66
2023-05-21T12:06:34.877Z,98435.59
2023-05-21T12:11:00.564Z,98430.63
2023-05-21T12:15:18.649Z,98430.56
2023-05-21T12:19:38.048Z,98417.78
2023-05-21T12:23:56.519Z,98419.06
2023-05-21T12:28:14.370Z,98416.78
2023-05-21T12:32:33.336Z,98408.72
2023-05-21T12:36:52.755Z,98408.56
2023-05-21T12:41:13.754Z,98397.13
2023-05-21T12:45:33.158Z,98380.50
2023-05-21T12:49:59.637Z,98375.13
2023-05-21T12:54:18.300Z,98348.47
2023-05-21T12:58:35.870Z,98360.16
2023-05-21T13:02:54.611Z,98335.09
2023-05-21T13:07:12.203Z,98342.13
2023-05-21T13:11:30.092Z,98366.91
2023-05-21T13:15:47.803Z,98401.25
2023-05-21T13:20:13.430Z,98420.28
2023-05-21T13:24:31.555Z,98500.44
2023-05-21T13:28:49.152Z,98669.38
2023-05-21T13:33:08.613Z,98768.34
2023-05-21T13:37:26.358Z,98884.47
2023-05-21T13:41:44.748Z,99041.91
2023-05-21T13:46:03.156Z,99191.25
2023-05-21T13:50:21.226Z,99214.78
2023-05-21T13:54:38.806Z,99260.31
2023-05-21T13:58:56.668Z,99270.13
2023-05-21T14:07:32.707Z,99241.47
2023-05-21T14:11:51.048Z,99207.03
2023-05-21T14:16:09.154Z,98876.75
2023-05-21T14:20:26.720Z,98377.50
2023-05-21T14:24:45.829Z,98357.13
2023-05-21T14:29:03.412Z,98359.38
2023-05-21T14:33:22.013Z,98347.50
2023-05-21T14:37:39.763Z,98327.47
2023-05-21T14:41:59.210Z,98339.34
2023-05-21T14:46:16.986Z,98344.06
2023-05-21T14:50:36.709Z,98326.44
2023-05-21T14:54:54.678Z,98333.97
2023-05-21T14:59:13.136Z,98319.03
2023-05-21T15:03:31.102Z,98309.91
2023-05-21T15:07:48.997Z,98308.91
2023-05-21T15:12:07.660Z,98306.63
2023-05-21T15:16:25.447Z,98292.47
2023-05-21T15:20:43.408Z,98296.34
2023-05-21T15:25:01.759Z,98293.44
2023-05-21T15:29:20.890Z,98284.78
2023-05-21T15:33:38.623Z,98288.50
2023-05-21T15:37:56.267Z,98291.13
2023-05-21T15:42:15.191Z,98280.84
2023-05-21T15:46:33.166Z,98278.22
2023-05-21T15:50:50.938Z,98273.28
2023-05-21T15:55:09.455Z,98275.81
2023-05-21T15:59:28.448Z,98255.53
2023-05-21T16:03:46.786Z,98254.81
2023-05-21T16:08:05.440Z,98260.06
2023-05-21T16:12:23.309Z,98258.41
2023-05-21T16:16:41.698Z,98263.63
2023-05-21T16:21:00.257Z,98259.19
2023-05-21T16:25:20.587Z,98253.16
2023-05-21T16:29:40.988Z,98259.44
2023-05-21T16:33:58.785Z,98254.28
2023-05-21T16:38:17.298Z,98255.75
2023-05-21T16:42:40.055Z,98244.09
2023-05-21T16:46:58.264Z,98254.13
2023-05-21T16:51:16.650Z,98255.16
2023-05-21T16:55:36.610Z,98247.25
2023-05-21T16:59:54.468Z,98250.44
2023-05-21T17:04:12.434Z,98250.44
2023-05-21T17:08:30.916Z,98248.41
2023-05-21T17:12:48.673Z,98246.97
2023-05-21T17:17:10.557Z,98257.19
2023-05-21T17:21:28.144Z,98250.94
2023-05-21T17:25:46.594Z,98252.13
2023-05-21T17:30:10.248Z,98243.88
2023-05-21T17:34:35.822Z,98246.94
2023-05-21T17:38:54.899Z,98239.88
2023-05-21T17:43:12.838Z,98243.81
2023-05-21T17:47:31.173Z,98252.59
2023-05-21T17:51:50.952Z,98251.47
2023-05-21T17:56:11.599Z,98241.50
2023-05-21T18:00:35.446Z,98241.41
2023-05-21T18:04:53.379Z,98244.47
2023-05-21T18:09:14.445Z,98240.50
2023-05-21T18:13:35.593Z,98237.81
2023-05-21T18:17:55.993Z,98247.38
2023-05-21T18:22:14.472Z,98253.16
2023-05-21T18:26:32.182Z,98252.44
2023-05-21T18:30:50.091Z,98257.50
2023-05-21T18:35:12.412Z,98259.53
2023-05-21T18:39:32.254Z,98260.91
2023-05-21T18:43:52.963Z,98264.16
2023-05-21T18:48:12.059Z,98269.44
2023-05-21T18:52:41.840Z,98267.50
2023-05-21T18:57:00.993Z,98264.66
2023-05-21T19:01:18.713Z,98277.50
2023-05-21T19:05:38.285Z,98283.28
2023-05-21T19:09:56.442Z,98284.19
2023-05-21T19:14:13.996Z,98282.41
2023-05-21T19:18:33.027Z,98284.84
2023-05-21T19:22:51.256Z,98290.06
2023-05-21T19:27:12.720Z,98289.28
2023-05-21T19:31:34.832Z,98280.66
2023-05-21T19:35:53.546Z,98281.56
2023-05-21T19:40:12.164Z,98284.41
2023-05-21T19:44:30.549Z,98280.91
2023-05-21T19:48:49.154Z,98278.28
2023-05-21T19:53:08.464Z,98277.25
2023-05-21T19:57:26.544Z,98268.06
2023-05-21T20:01:45.702Z,98269.19
2023-05-21T20:06:03.925Z,98267.06
2023-05-21T20:10:22.025Z,98269.19
2023-05-21T20:14:39.464Z,98271.59
2023-05-21T20:18:58.563Z,98269.09
2023-05-21T20:23:16.941Z,98269.66
2023-05-21T20:27:39.103Z,98271.78
2023-05-21T20:31:57.029Z,98275.22
2023-05-21T20:36:15.525Z,98266.13
2023-05-21T20:40:33.163Z,98274.41
2023-05-21T20:44:53.066Z,98268.19
2023-05-21T20:49:10.762Z,98279.88
2023-05-21T20:53:28.462Z,98280.13
2023-05-21T20:57:46.477Z,98269.00
2023-05-21T21:02:06.160Z,98279.06
2023-05-21T21:06:26.264Z,98276.81
2023-05-21T21:10:48.516Z,98272.63
2023-05-21T21:15:07.986Z,98278.41
2023-05-21T21:19:26.148Z,98271.81
2023-05-21T21:23:43.925Z,98283.19
2023-05-21T21:28:02.359Z,98286.50
2023-05-21T21:32:20.581Z,98285.22
2023-05-21T21:36:39.951Z,98298.84
2023-05-21T21:40:57.569Z,98277.53
2023-05-21T21:45:16.884Z,98285.56
2023-05-21T21:49:34.596Z,98282.31
2023-05-21T21:53:52.981Z,98281.72
2023-05-21T21:58:11.260Z,98277.28
2023-05-21T22:02:28.817Z,98281.72
2023-05-21T22:06:47.420Z,98274.91
2023-05-21T22:11:06.771Z,98274.47
2023-05-21T22:15:26.314Z,98271.97
2023-05-21T22:19:44.257Z,98264.47
2023-05-21T22:24:02.530Z,98265.97
2023-05-21T22:28:23.350Z,98252.13
2023-05-21T22:32:41.232Z,98254.47
2023-05-21T22:36:59.438Z,98259.38
2023-05-21T22:41:17.152Z,98261.19
2023-05-21T22:45:37.313Z,98265.72
2023-05-21T22:49:56.092Z,98253.25
2023-05-21T22:54:14.994Z,98262.09
2023-05-21T22:58:32.596Z,98263.47
2023-05-21T23:02:53.846Z,98263.34
2023-05-21T23:07:13.147Z,98263.56
2023-05-21T23:11:31.171Z,98263.00
2023-05-21T23:15:48.892Z,98259.03
2023-05-21T23:20:11.463Z,98262.44
2023-05-21T23:24:30.882Z,98261.66
2023-05-21T23:28:48.895Z,98265.72
2023-05-21T23:33:08.535Z,98252.13
2023-05-21T23:37:27.047Z,98250.06
2023-05-21T23:41:45.273Z,98258.38
2023-05-21T23:46:03.455Z,98244.50
2023-05-21T23:50:22.178Z,98252.91
2023-05-21T23:54:39.774Z,98246.47
2023-05-21T23:58:58.094Z,98253.94
